Time,TemperatureF,DewpointF,PressureIn,WindDirection,WindDirectionDegrees,WindSpeedMPH,WindSpeedGustMPH,Humidity,HourlyPrecipIn,Conditions,Clouds,dailyrainin,SoftwareType,DateUTC
2013-07-16 00:01:00,76.5,69.9,30.13,West,270,0.0,0.0,80,0.00,CLR,,0.00,WeatherDisplay:10.37,2013-07-16 04:01:00,
2013-07-16 00:02:00,76.5,69.9,30.13,West,270,0.0,0.0,80,0.00,CLR,,0.00,WeatherDisplay:10.37,2013-07-16 04:02:00,
2013-07-16 00:03:00,76.5,69.9,30.13,West,270,0.0,0.0,80,0.00,CLR,,0.00,WeatherDisplay:10.37,2013-07-16 04:03:00,
2013-07-16 00:08:00,76.5,69.9,30.13,West,270,0.0,0.0,80,0.00,CLR,,0.00,WeatherDisplay:10.37,2013-07-16 04:08:00,
2013-07-16 00:09:00,76.5,69.9,30.13,South,180,0.0,0.0,80,0.00,CLR,,0.00,WeatherDisplay:10.37,2013-07-16 04:09:00,
2013-07-16 00:14:00,76.5,69.9,30.13,SSW,202,0.0,0.0,80,0.00,CLR,,0.00,WeatherDisplay:10.37,2013-07-16 04:14:00,
2013-07-16 00:19:00,76.6,70.7,30.13,SSW,202,0.0,0.0,82,0.00,CLR,,0.00,WeatherDisplay:10.37,2013-07-16 04:19:00,
2013-07-16 00:24:00,76.5,70.2,30.13,SSE,158,0.0,0.0,81,0.00,CLR,,0.00,WeatherDisplay:10.37,2013-07-16 04:24:00,
2013-07-16 00:29:00,76.3,70.4,30.13,ESE,112,0.0,0.0,82,0.00,CLR,,0.00,WeatherDisplay:10.37,2013-07-16 04:29:00,
2013-07-16 00:34:00,76.1,70.6,30.13,ESE,112,0.0,0.0,83,0.00,CLR,,0.00,WeatherDisplay:10.37,2013-07-16 04:34:00,
2013-07-16 00:39:00,75.9,70.4,30.13,ESE,112,0.0,0.0,83,0.00,CLR,,0.00,WeatherDisplay:10.37,2013-07-16 04:39:00,
2013-07-16 00:44:00,75.7,70.5,30.13,ESE,112,5.8,5.8,84,0.00,CLR,,0.00,WeatherDisplay:10.37,2013-07-16 04:44:00,
2013-07-16 00:49:00,74.8,70.3,30.13,ENE,68,4.7,4.7,86,0.00,CLR,,0.00,WeatherDisplay:10.37,2013-07-16 04:49:00,
2013-07-16 00:54:00,74.8,70.3,30.13,ESE,112,3.5,3.5,86,0.00,CLR,,0.00,WeatherDisplay:10.37,2013-07-16 04:54:00,
2013-07-16 00:59:00,74.8,70.3,30.13,ESE,112,2.3,2.3,86,0.00,CLR,,0.00,WeatherDisplay:10.37,2013-07-16 04:59:00,
2013-07-16 01:04:00,74.8,70.3,30.13,SE,135,2.3,2.3,86,0.00,CLR,,0.00,WeatherDisplay:10.37,2013-07-16 05:04:00,
2013-07-16 01:09:00,74.8,70.3,30.13,ESE,112,2.3,2.3,86,0.00,CLR,,0.00,WeatherDisplay:10.37,2013-07-16 05:09:00,
2013-07-16 01:14:00,74.8,70.3,30.13,WSW,248,3.2,3.2,86,0.00,CLR,,0.00,WeatherDisplay:10.37,2013-07-16 05:14:00,
2013-07-16 01:19:00,74.5,70.4,30.13,SW,225,2.3,2.3,87,0.00,CLR,,0.00,WeatherDisplay:10.37,2013-07-16 05:19:00,
2013-07-16 01:24:00,74.3,70.2,30.13,SE,135,0.0,0.0,87,0.00,CLR,,0.00,WeatherDisplay:10.37,2013-07-16 05:24:00,
2013-07-16 01:29:00,74.7,70.2,30.13,ESE,112,0.0,0.0,86,0.00,CLR,,0.00,WeatherDisplay:10.37,2013-07-16 05:29:00,
2013-07-16 01:34:00,74.3,70.2,30.13,WSW,248,0.0,0.0,87,0.00,FEW,,0.00,WeatherDisplay:10.37,2013-07-16 05:34:00,
2013-07-16 01:39:00,74.5,70.4,30.13,ESE,112,0.0,0.0,87,0.00,FEW,,0.00,WeatherDisplay:10.37,2013-07-16 05:39:00,
2013-07-16 01:44:00,74.3,70.2,30.13,SW,225,0.0,0.0,87,0.00,FEW,,0.00,WeatherDisplay:10.37,2013-07-16 05:44:00,
2013-07-16 01:49:00,74.1,70.3,30.13,SW,225,2.7,2.7,88,0.00,FEW,,0.00,WeatherDisplay:10.37,2013-07-16 05:49:00,
2013-07-16 01:54:00,74.1,70.3,30.13,SW,225,2.3,2.3,88,0.00,FEW,,0.00,WeatherDisplay:10.37,2013-07-16 05:54:00,
2013-07-16 01:59:00,74.1,70.3,30.13,WSW,248,2.7,2.7,88,0.00,FEW,,0.00,WeatherDisplay:10.37,2013-07-16 05:59:00,
2013-07-16 02:04:00,74.1,70.3,30.13,SW,225,2.3,2.3,88,0.00,CLR,,0.00,WeatherDisplay:10.37,2013-07-16 06:04:00,
2013-07-16 02:09:00,73.8,70.4,30.13,WSW,248,1.7,1.7,89,0.00,CLR,,0.00,WeatherDisplay:10.37,2013-07-16 06:09:00,
2013-07-16 02:14:00,73.8,70.4,30.12,WSW,248,1.1,1.1,89,0.00,CLR,,0.00,WeatherDisplay:10.37,2013-07-16 06:14:00,
2013-07-16 02:19:00,73.8,70.4,30.12,WSW,248,0.0,0.0,89,0.00,CLR,,0.00,WeatherDisplay:10.37,2013-07-16 06:19:00,
2013-07-16 02:24:00,73.8,70.4,30.12,ESE,112,0.0,0.0,89,0.00,CLR,,0.00,WeatherDisplay:10.37,2013-07-16 06:24:00,
2013-07-16 02:29:00,73.2,69.8,30.12,East,90,2.3,2.5,89,0.00,CLR,,0.00,WeatherDisplay:10.37,2013-07-16 06:29:00,
2013-07-16 02:34:00,73.4,70.0,30.13,SSW,202,0.0,0.0,89,0.00,CLR,,0.00,WeatherDisplay:10.37,2013-07-16 06:34:00,
2013-07-16 02:39:00,73.4,70.0,30.13,SW,225,1.1,1.1,89,0.00,CLR,,0.00,WeatherDisplay:10.37,2013-07-16 06:39:00,
2013-07-16 02:44:00,73.4,70.0,30.13,ESE,112,0.0,0.0,89,0.00,CLR,,0.00,WeatherDisplay:10.37,2013-07-16 06:44:00,
2013-07-16 02:49:00,72.5,69.4,30.13,ESE,112,2.3,2.3,90,0.00,CLR,,0.00,WeatherDisplay:10.37,2013-07-16 06:49:00,
2013-07-16 02:54:00,72.5,69.7,30.13,ESE,112,2.3,2.3,91,0.00,CLR,,0.00,WeatherDisplay:10.37,2013-07-16 06:54:00,
2013-07-16 02:59:00,72.5,69.7,30.13,East,90,1.1,1.1,91,0.00,CLR,,0.00,WeatherDisplay:10.37,2013-07-16 06:59:00,
2013-07-16 03:04:00,72.5,69.7,30.13,WSW,248,2.7,2.7,91,0.00,CLR,,0.00,WeatherDisplay:10.37,2013-07-16 07:04:00,
2013-07-16 03:09:00,72.5,69.7,30.13,WSW,248,0.0,0.0,91,0.00,CLR,,0.00,WeatherDisplay:10.37,2013-07-16 07:09:00,
2013-07-16 03:14:00,72.5,69.7,30.13,SW,225,0.0,0.0,91,0.00,CLR,,0.00,WeatherDisplay:10.37,2013-07-16 07:14:00,
2013-07-16 03:19:00,72.3,69.5,30.13,SW,225,0.0,0.0,91,0.00,CLR,,0.00,WeatherDisplay:10.37,2013-07-16 07:19:00,
2013-07-16 03:24:00,72.3,69.8,30.12,West,270,0.0,0.0,92,0.00,CLR,,0.00,WeatherDisplay:10.37,2013-07-16 07:24:00,
2013-07-16 03:29:00,72.3,70.2,30.12,WSW,248,0.0,0.0,93,0.00,CLR,,0.00,WeatherDisplay:10.37,2013-07-16 07:29:00,
2013-07-16 03:34:00,72.1,70.0,30.12,WSW,248,0.0,0.0,93,0.00,CLR,,0.00,WeatherDisplay:10.37,2013-07-16 07:34:00,
2013-07-16 03:39:00,72.1,70.0,30.12,SW,225,0.0,0.0,93,0.00,CLR,,0.00,WeatherDisplay:10.37,2013-07-16 07:39:00,
2013-07-16 03:44:00,72.0,69.9,30.12,SE,135,2.3,2.7,93,0.00,CLR,,0.00,WeatherDisplay:10.37,2013-07-16 07:44:00,
2013-07-16 03:49:00,71.6,69.5,30.12,ESE,112,2.3,2.3,93,0.00,CLR,,0.00,WeatherDisplay:10.37,2013-07-16 07:49:00,
2013-07-16 03:54:00,71.8,70.0,30.12,WNW,292,0.0,0.0,94,0.00,CLR,,0.00,WeatherDisplay:10.37,2013-07-16 07:54:00,
2013-07-16 03:59:00,71.8,70.0,30.12,SW,225,0.0,0.0,94,0.00,CLR,,0.00,WeatherDisplay:10.37,2013-07-16 07:59:00,
2013-07-16 04:04:00,71.6,69.8,30.12,SW,225,0.0,0.0,94,0.00,CLR,,0.00,WeatherDisplay:10.37,2013-07-16 08:04:00,
2013-07-16 04:09:00,71.6,69.8,30.12,SW,225,0.0,0.0,94,0.00,CLR,,0.00,WeatherDisplay:10.37,2013-07-16 08:09:00,
2013-07-16 04:14:00,71.6,69.8,30.12,SW,225,0.0,0.0,94,0.00,CLR,,0.00,WeatherDisplay:10.37,2013-07-16 08:14:00,
2013-07-16 04:19:00,71.6,69.8,30.12,SW,225,0.0,0.0,94,0.00,CLR,,0.00,WeatherDisplay:10.37,2013-07-16 08:19:00,
2013-07-16 04:24:00,71.6,69.8,30.12,SW,225,0.0,0.0,94,0.00,CLR,,0.00,WeatherDisplay:10.37,2013-07-16 08:24:00,
2013-07-16 04:29:00,71.4,69.6,30.12,SW,225,0.0,0.0,94,0.00,CLR,,0.00,WeatherDisplay:10.37,2013-07-16 08:29:00,
2013-07-16 04:34:00,71.4,69.6,30.11,WSW,248,0.0,0.0,94,0.00,CLR,,0.00,WeatherDisplay:10.37,2013-07-16 08:34:00,
2013-07-16 04:39:00,71.4,69.9,30.11,SW,225,0.0,0.0,95,0.00,CLR,,0.00,WeatherDisplay:10.37,2013-07-16 08:39:00,
2013-07-16 04:44:00,71.4,69.9,30.11,SW,225,0.0,0.0,95,0.00,CLR,,0.00,WeatherDisplay:10.37,2013-07-16 08:44:00,
2013-07-16 04:49:00,71.2,69.7,30.12,SW,225,0.0,0.0,95,0.00,CLR,,0.00,WeatherDisplay:10.37,2013-07-16 08:49:00,
2013-07-16 04:54:00,71.1,69.6,30.12,SW,225,0.0,0.0,95,0.00,CLR,,0.00,WeatherDisplay:10.37,2013-07-16 08:54:00,
2013-07-16 04:59:00,71.1,69.6,30.12,West,270,0.0,0.0,95,0.00,CLR,,0.00,WeatherDisplay:10.37,2013-07-16 08:59:00,
2013-07-16 05:04:00,71.1,69.9,30.12,ESE,112,2.3,2.3,96,0.00,CLR,,0.00,WeatherDisplay:10.37,2013-07-16 09:04:00,
2013-07-16 05:09:00,71.1,69.9,30.12,SW,225,1.7,1.7,96,0.00,CLR,,0.00,WeatherDisplay:10.37,2013-07-16 09:09:00,
2013-07-16 05:14:00,70.9,69.7,30.12,WSW,248,2.3,2.3,96,0.00,CLR,,0.00,WeatherDisplay:10.37,2013-07-16 09:14:00,
2013-07-16 05:19:00,70.9,69.7,30.12,West,270,0.0,0.0,96,0.00,CLR,,0.00,WeatherDisplay:10.37,2013-07-16 09:19:00,
2013-07-16 05:24:00,70.9,69.7,30.13,WSW,248,0.0,0.0,96,0.00,CLR,,0.00,WeatherDisplay:10.37,2013-07-16 09:24:00,
2013-07-16 05:29:00,70.9,69.7,30.13,East,90,0.0,0.0,96,0.00,CLR,,0.00,WeatherDisplay:10.37,2013-07-16 09:29:00,
2013-07-16 05:34:00,70.9,69.7,30.13,SW,225,0.0,0.0,96,0.00,CLR,,0.00,WeatherDisplay:10.37,2013-07-16 09:34:00,
2013-07-16 05:39:00,70.9,69.7,30.13,West,270,0.0,0.0,96,0.00,CLR,,0.00,WeatherDisplay:10.37,2013-07-16 09:39:00,
2013-07-16 05:44:00,70.9,69.7,30.13,SE,135,0.0,0.0,96,0.00,CLR,,0.00,WeatherDisplay:10.37,2013-07-16 09:44:00,
2013-07-16 05:49:00,70.7,69.5,30.14,ESE,112,0.0,0.0,96,0.00,CLR,,0.00,WeatherDisplay:10.37,2013-07-16 09:49:00,
2013-07-16 05:54:00,71.1,69.9,30.14,East,90,0.0,0.0,96,0.00,CLR,,0.00,WeatherDisplay:10.37,2013-07-16 09:54:00,
2013-07-16 05:59:00,70.9,69.7,30.14,ESE,112,0.0,0.0,96,0.00,CLR,,0.00,WeatherDisplay:10.37,2013-07-16 09:59:00,
2013-07-16 06:04:00,70.9,69.7,30.14,East,90,0.0,0.0,96,0.00,CLR,,0.00,WeatherDisplay:10.37,2013-07-16 10:04:00,
2013-07-16 06:09:00,70.9,69.7,30.14,ESE,112,0.0,0.0,96,0.00,CLR,,0.00,WeatherDisplay:10.37,2013-07-16 10:09:00,
2013-07-16 06:14:00,71.1,69.9,30.14,East,90,0.0,0.0,96,0.00,CLR,,0.00,WeatherDisplay:10.37,2013-07-16 10:14:00,
2013-07-16 06:19:00,71.1,69.9,30.14,East,90,0.0,0.0,96,0.00,CLR,,0.00,WeatherDisplay:10.37,2013-07-16 10:19:00,
2013-07-16 06:24:00,71.4,69.6,30.14,East,90,0.0,0.0,94,0.00,CLR,,0.00,WeatherDisplay:10.37,2013-07-16 10:24:00,
2013-07-16 06:29:00,71.4,69.6,30.14,WSW,248,0.0,0.0,94,0.00,CLR,,0.00,WeatherDisplay:10.37,2013-07-16 10:29:00,
2013-07-16 06:34:00,72.0,69.9,30.14,South,180,0.0,0.0,93,0.00,CLR,,0.00,WeatherDisplay:10.37,2013-07-16 10:34:00,
2013-07-16 06:39:00,72.5,70.0,30.14,SW,225,0.0,0.0,92,0.00,CLR,,0.00,WeatherDisplay:10.37,2013-07-16 10:39:00,
2013-07-16 06:44:00,73.6,70.5,30.14,South,180,0.0,0.0,90,0.00,CLR,,0.00,WeatherDisplay:10.37,2013-07-16 10:44:00,
2013-07-16 06:49:00,73.9,70.5,30.15,South,180,0.0,0.0,89,0.00,CLR,,0.00,WeatherDisplay:10.37,2013-07-16 10:49:00,
2013-07-16 06:54:00,74.5,70.7,30.15,East,90,0.0,0.0,88,0.00,CLR,,0.00,WeatherDisplay:10.37,2013-07-16 10:54:00,
2013-07-16 06:59:00,74.8,70.7,30.15,ESE,112,1.1,1.1,87,0.00,CLR,,0.00,WeatherDisplay:10.37,2013-07-16 10:59:00,
2013-07-16 07:04:00,75.0,70.9,30.15,ESE,112,0.0,0.0,87,0.00,CLR,,0.00,WeatherDisplay:10.37,2013-07-16 11:04:00,
2013-07-16 07:09:00,76.8,71.2,30.15,South,180,0.0,0.0,83,0.00,CLR,,0.00,WeatherDisplay:10.37,2013-07-16 11:09:00,
2013-07-16 07:14:00,76.6,71.0,30.15,SE,135,0.0,0.0,83,0.00,CLR,,0.00,WeatherDisplay:10.37,2013-07-16 11:14:00,
2013-07-16 07:19:00,76.5,71.3,30.15,SE,135,1.7,1.7,84,0.00,CLR,,0.00,WeatherDisplay:10.37,2013-07-16 11:19:00,
2013-07-16 07:24:00,76.6,71.4,30.16,SSE,158,1.1,1.1,84,0.00,CLR,,0.00,WeatherDisplay:10.37,2013-07-16 11:24:00,
2013-07-16 07:29:00,78.4,72.1,30.16,SSW,202,0.0,0.0,81,0.00,CLR,,0.00,WeatherDisplay:10.37,2013-07-16 11:29:00,
2013-07-16 07:34:00,79.7,72.2,30.16,WSW,248,0.0,0.0,78,0.00,BKN,,0.00,WeatherDisplay:10.37,2013-07-16 11:34:00,
2013-07-16 07:39:00,80.1,72.6,30.16,ESE,112,0.0,0.0,78,0.00,BKN,,0.00,WeatherDisplay:10.37,2013-07-16 11:39:00,
2013-07-16 07:44:00,80.8,72.9,30.16,SSW,202,1.1,1.1,77,0.00,BKN,,0.00,WeatherDisplay:10.37,2013-07-16 11:44:00,
2013-07-16 07:49:00,82.6,73.5,30.16,SSW,202,0.0,0.0,74,0.00,BKN,,0.00,WeatherDisplay:10.37,2013-07-16 11:49:00,
2013-07-16 07:54:00,83.8,73.8,30.16,SSE,158,1.1,1.1,72,0.00,BKN,,0.00,WeatherDisplay:10.37,2013-07-16 11:54:00,
2013-07-16 07:59:00,84.0,74.0,30.17,WSW,248,0.0,0.0,72,0.00,BKN,,0.00,WeatherDisplay:10.37,2013-07-16 11:59:00,
2013-07-16 08:04:00,85.1,74.2,30.17,SSE,158,1.1,1.1,70,0.00,BKN,,0.00,WeatherDisplay:10.37,2013-07-16 12:04:00,
2013-07-16 08:09:00,84.0,73.6,30.16,SSE,158,0.0,0.3,71,0.00,BKN,,0.00,WeatherDisplay:10.37,2013-07-16 12:09:00,
2013-07-16 08:14:00,84.9,74.4,30.16,ESE,112,0.0,0.0,71,0.00,BKN,,0.00,WeatherDisplay:10.37,2013-07-16 12:14:00,
2013-07-16 08:19:00,84.7,74.3,30.16,SSW,202,0.0,0.0,71,0.00,BKN,,0.00,WeatherDisplay:10.37,2013-07-16 12:19:00,
2013-07-16 08:24:00,85.5,74.6,30.17,SW,225,1.1,1.1,70,0.00,BKN,,0.00,WeatherDisplay:10.37,2013-07-16 12:24:00,
2013-07-16 08:29:00,86.4,74.6,30.17,South,180,2.3,2.3,68,0.00,BKN,,0.00,WeatherDisplay:10.37,2013-07-16 12:29:00,
2013-07-16 08:34:00,86.9,74.6,30.17,South,180,1.1,0.0,67,0.00,CLR,,0.00,WeatherDisplay:10.37,2013-07-16 12:34:00,
2013-07-16 08:39:00,87.3,75.0,30.17,SSW,202,0.0,0.0,67,0.00,CLR,,0.00,WeatherDisplay:10.37,2013-07-16 12:39:00,
2013-07-16 08:44:00,86.0,74.6,30.17,SW,225,1.1,1.1,69,0.00,CLR,,0.00,WeatherDisplay:10.37,2013-07-16 12:44:00,
2013-07-16 08:49:00,86.9,75.1,30.17,NNE,22,0.0,0.0,68,0.00,CLR,,0.00,WeatherDisplay:10.37,2013-07-16 12:49:00,
2013-07-16 08:54:00,86.5,74.7,30.17,South,180,1.7,1.7,68,0.00,CLR,,0.00,WeatherDisplay:10.37,2013-07-16 12:54:00,
2013-07-16 08:59:00,84.2,74.2,30.17,ESE,112,2.2,2.2,72,0.00,CLR,,0.00,WeatherDisplay:10.37,2013-07-16 12:59:00,
2013-07-16 09:04:00,86.0,74.6,30.17,SSE,158,2.3,2.3,69,0.00,SCT,,0.00,WeatherDisplay:10.37,2013-07-16 13:04:00,
2013-07-16 09:09:00,87.4,75.1,30.17,WSW,248,0.0,0.0,67,0.00,SCT,,0.00,WeatherDisplay:10.37,2013-07-16 13:09:00,
2013-07-16 09:14:00,88.0,75.2,30.17,South,180,1.1,1.1,66,0.00,SCT,,0.00,WeatherDisplay:10.37,2013-07-16 13:14:00,
2013-07-16 09:19:00,88.0,75.2,30.17,SSW,202,2.3,2.3,66,0.00,SCT,,0.00,WeatherDisplay:10.37,2013-07-16 13:19:00,
2013-07-16 09:24:00,88.3,75.0,30.17,WSW,248,3.5,3.5,65,0.00,SCT,,0.00,WeatherDisplay:10.37,2013-07-16 13:24:00,
2013-07-16 09:29:00,90.5,76.2,30.17,West,270,3.5,3.5,63,0.00,SCT,,0.00,WeatherDisplay:10.37,2013-07-16 13:29:00,
2013-07-16 09:34:00,91.8,76.4,30.17,West,270,2.7,2.7,61,0.00,SCT,,0.00,WeatherDisplay:10.37,2013-07-16 13:34:00,
2013-07-16 09:39:00,91.8,76.4,30.17,West,270,2.7,2.7,61,0.00,SCT,,0.00,WeatherDisplay:10.37,2013-07-16 13:39:00,
2013-07-16 09:44:00,93.0,76.6,30.17,SE,135,1.7,1.7,59,0.00,SCT,,0.00,WeatherDisplay:10.37,2013-07-16 13:44:00,
2013-07-16 09:49:00,86.2,74.8,30.16,SSW,202,2.2,2.2,69,0.00,SCT,,0.00,WeatherDisplay:10.37,2013-07-16 13:49:00,
2013-07-16 09:54:00,87.3,75.4,30.16,West,270,1.1,1.1,68,0.00,SCT,,0.00,WeatherDisplay:10.37,2013-07-16 13:54:00,
2013-07-16 09:59:00,83.7,74.5,30.16,West,270,3.5,3.5,74,0.00,SCT,,0.00,WeatherDisplay:10.37,2013-07-16 13:59:00,
2013-07-16 10:04:00,85.5,75.0,30.16,SSE,158,1.1,1.8,71,0.00,CLR,,0.00,WeatherDisplay:10.37,2013-07-16 14:04:00,
2013-07-16 10:09:00,86.5,75.1,30.16,WSW,248,2.7,2.7,69,0.00,CLR,,0.00,WeatherDisplay:10.37,2013-07-16 14:09:00,
2013-07-16 10:14:00,86.0,75.5,30.16,South,180,2.3,2.3,71,0.00,CLR,,0.00,WeatherDisplay:10.37,2013-07-16 14:14:00,
2013-07-16 10:19:00,85.3,75.2,30.16,SSW,202,4.6,4.6,72,0.00,CLR,,0.00,WeatherDisplay:10.37,2013-07-16 14:19:00,
2013-07-16 10:24:00,84.9,74.9,30.16,SW,225,3.7,4.0,72,0.00,CLR,,0.00,WeatherDisplay:10.37,2013-07-16 14:24:00,
2013-07-16 10:29:00,87.6,75.7,30.16,WSW,248,2.3,2.3,68,0.00,CLR,,0.00,WeatherDisplay:10.37,2013-07-16 14:29:00,
2013-07-16 10:34:00,86.2,75.7,30.16,West,270,4.6,4.6,71,0.00,CLR,,0.00,WeatherDisplay:10.37,2013-07-16 14:34:00,
2013-07-16 10:39:00,85.6,74.7,30.16,West,270,4.6,4.6,70,0.00,CLR,,0.00,WeatherDisplay:10.37,2013-07-16 14:39:00,
2013-07-16 10:44:00,89.4,76.5,30.16,SW,225,3.7,3.7,66,0.00,CLR,,0.00,WeatherDisplay:10.37,2013-07-16 14:44:00,
2013-07-16 10:49:00,88.7,75.9,30.16,NNE,22,3.5,3.5,66,0.00,CLR,,0.00,WeatherDisplay:10.37,2013-07-16 14:49:00,
2013-07-16 10:54:00,86.9,74.2,30.16,WSW,248,5.8,5.8,66,0.00,CLR,,0.00,WeatherDisplay:10.37,2013-07-16 14:54:00,
2013-07-16 10:59:00,86.5,75.5,30.16,WSW,248,6.3,6.3,70,0.00,CLR,,0.00,WeatherDisplay:10.37,2013-07-16 14:59:00,
2013-07-16 11:04:00,88.7,75.4,30.16,ESE,112,4.6,4.6,65,0.00,CLR,,0.00,WeatherDisplay:10.37,2013-07-16 15:04:00,
2013-07-16 11:09:00,86.9,74.2,30.15,WSW,248,5.8,5.8,66,0.00,CLR,,0.00,WeatherDisplay:10.37,2013-07-16 15:09:00,
2013-07-16 11:14:00,86.0,73.8,30.15,East,90,5.8,5.8,67,0.00,CLR,,0.00,WeatherDisplay:10.37,2013-07-16 15:14:00,
2013-07-16 11:19:00,87.3,74.5,30.15,ESE,112,4.7,4.7,66,0.00,CLR,,0.00,WeatherDisplay:10.37,2013-07-16 15:19:00,
2013-07-16 11:24:00,87.6,74.4,30.15,NNE,22,5.8,5.8,65,0.00,CLR,,0.00,WeatherDisplay:10.37,2013-07-16 15:24:00,
2013-07-16 11:29:00,89.6,75.8,30.15,ENE,68,4.2,4.2,64,0.00,CLR,,0.00,WeatherDisplay:10.37,2013-07-16 15:29:00,
2013-07-16 11:34:00,87.1,74.4,30.15,West,270,7.8,7.8,66,0.00,FEW,,0.00,WeatherDisplay:10.37,2013-07-16 15:34:00,
2013-07-16 11:39:00,86.5,74.7,30.15,ESE,112,6.9,6.9,68,0.00,FEW,,0.00,WeatherDisplay:10.37,2013-07-16 15:39:00,
2013-07-16 11:44:00,86.5,74.2,30.15,NNW,338,5.8,5.8,67,0.00,FEW,,0.00,WeatherDisplay:10.37,2013-07-16 15:44:00,
2013-07-16 11:49:00,86.2,74.4,30.15,West,270,6.9,6.9,68,0.00,FEW,,0.00,WeatherDisplay:10.37,2013-07-16 15:49:00,
2013-07-16 11:54:00,87.1,74.4,30.15,West,270,8.1,8.1,66,0.00,FEW,,0.00,WeatherDisplay:10.37,2013-07-16 15:54:00,
2013-07-16 11:59:00,88.9,75.1,30.15,WSW,248,6.3,7.0,64,0.00,FEW,,0.00,WeatherDisplay:10.37,2013-07-16 15:59:00,
2013-07-16 12:04:00,87.3,74.5,30.15,NNE,22,5.8,5.8,66,0.00,FEW,,0.00,WeatherDisplay:10.37,2013-07-16 16:04:00,
2013-07-16 12:09:00,88.0,74.3,30.15,ESE,112,5.8,5.8,64,0.00,FEW,,0.00,WeatherDisplay:10.37,2013-07-16 16:09:00,
2013-07-16 12:14:00,88.7,74.5,30.15,WSW,248,5.8,5.8,63,0.00,FEW,,0.00,WeatherDisplay:10.37,2013-07-16 16:14:00,
2013-07-16 12:19:00,88.5,74.8,30.15,ESE,112,7.3,7.3,64,0.00,FEW,,0.00,WeatherDisplay:10.37,2013-07-16 16:19:00,
2013-07-16 12:24:00,89.6,75.3,30.15,NNW,338,4.2,4.2,63,0.00,FEW,,0.00,WeatherDisplay:10.37,2013-07-16 16:24:00,
2013-07-16 12:29:00,88.5,74.3,30.15,ESE,112,7.3,7.3,63,0.00,FEW,,0.00,WeatherDisplay:10.37,2013-07-16 16:29:00,
2013-07-16 12:34:00,90.9,74.6,30.14,NNE,22,6.9,6.9,59,0.00,SCT,,0.00,WeatherDisplay:10.37,2013-07-16 16:34:00,
2013-07-16 12:39:00,88.5,74.3,30.14,ESE,112,6.9,6.9,63,0.00,SCT,,0.00,WeatherDisplay:10.37,2013-07-16 16:39:00,
2013-07-16 12:44:00,89.2,74.0,30.14,WNW,292,4.6,4.6,61,0.00,SCT,,0.00,WeatherDisplay:10.37,2013-07-16 16:44:00,
2013-07-16 12:49:00,88.0,73.8,30.14,North,360,5.8,5.8,63,0.00,SCT,,0.00,WeatherDisplay:10.37,2013-07-16 16:49:00,
2013-07-16 12:54:00,89.1,74.9,30.14,East,90,7.3,7.3,63,0.00,SCT,,0.00,WeatherDisplay:10.37,2013-07-16 16:54:00,
2013-07-16 12:59:00,87.8,73.2,30.13,East,90,6.3,6.3,62,0.00,SCT,,0.00,WeatherDisplay:10.37,2013-07-16 16:59:00,
2013-07-16 13:04:00,87.1,73.4,30.13,ENE,68,5.8,5.8,64,0.00,SCT,,0.00,WeatherDisplay:10.37,2013-07-16 17:04:00,
2013-07-16 13:09:00,91.6,74.2,30.13,WSW,248,5.8,5.8,57,0.00,SCT,,0.00,WeatherDisplay:10.37,2013-07-16 17:09:00,
2013-07-16 13:14:00,86.9,72.8,30.13,ENE,68,5.8,5.8,63,0.00,SCT,,0.00,WeatherDisplay:10.37,2013-07-16 17:14:00,
2013-07-16 13:19:00,88.2,73.5,30.13,SSW,202,2.3,2.4,62,0.00,SCT,,0.00,WeatherDisplay:10.37,2013-07-16 17:19:00,
2013-07-16 13:24:00,86.5,72.9,30.13,East,90,6.3,6.3,64,0.00,SCT,,0.00,WeatherDisplay:10.37,2013-07-16 17:24:00,
2013-07-16 13:29:00,87.6,73.4,30.13,NE,45,3.5,3.5,63,0.00,SCT,,0.00,WeatherDisplay:10.37,2013-07-16 17:29:00,
2013-07-16 13:34:00,87.1,73.4,30.13,ESE,112,4.6,4.6,64,0.00,BKN,,0.00,WeatherDisplay:10.37,2013-07-16 17:34:00,
2013-07-16 13:39:00,87.8,73.6,30.13,ESE,112,6.3,6.3,63,0.00,BKN,,0.00,WeatherDisplay:10.37,2013-07-16 17:39:00,
2013-07-16 13:44:00,90.1,74.3,30.13,ESE,112,5.8,5.8,60,0.00,BKN,,0.00,WeatherDisplay:10.37,2013-07-16 17:44:00,
2013-07-16 13:49:00,91.6,74.2,30.12,SSW,202,1.1,1.1,57,0.00,BKN,,0.00,WeatherDisplay:10.37,2013-07-16 17:49:00,
2013-07-16 13:54:00,89.6,73.9,30.12,West,270,5.8,5.8,60,0.00,BKN,,0.00,WeatherDisplay:10.37,2013-07-16 17:54:00,
2013-07-16 13:59:00,89.1,73.4,30.12,ESE,112,8.1,8.1,60,0.00,BKN,,0.00,WeatherDisplay:10.37,2013-07-16 17:59:00,
2013-07-16 14:04:00,90.3,74.5,30.12,ENE,68,3.7,3.7,60,0.00,OVC,,0.00,WeatherDisplay:10.37,2013-07-16 18:04:00,
2013-07-16 14:09:00,89.2,73.5,30.11,ESE,112,6.3,6.3,60,0.00,OVC,,0.00,WeatherDisplay:10.37,2013-07-16 18:09:00,
2013-07-16 14:14:00,87.4,73.7,30.11,NNE,22,8.1,8.1,64,0.00,OVC,,0.00,WeatherDisplay:10.37,2013-07-16 18:14:00,
2013-07-16 14:19:00,87.8,73.2,30.11,ENE,68,4.6,4.6,62,0.00,OVC,,0.00,WeatherDisplay:10.37,2013-07-16 18:19:00,
2013-07-16 14:24:00,87.4,73.3,30.11,East,90,5.8,5.8,63,0.00,OVC,,0.00,WeatherDisplay:10.37,2013-07-16 18:24:00,
2013-07-16 14:29:00,88.2,73.5,30.11,ESE,112,4.7,4.7,62,0.00,OVC,,0.00,WeatherDisplay:10.37,2013-07-16 18:29:00,
2013-07-16 14:34:00,88.7,73.0,30.11,ESE,112,4.6,4.6,60,0.00,OVC,,0.00,WeatherDisplay:10.37,2013-07-16 18:34:00,
2013-07-16 14:39:00,88.9,73.2,30.11,ESE,112,5.8,5.8,60,0.00,OVC,,0.00,WeatherDisplay:10.37,2013-07-16 18:39:00,
2013-07-16 14:44:00,92.7,74.2,30.10,SSE,158,4.6,4.6,55,0.00,OVC,,0.00,WeatherDisplay:10.37,2013-07-16 18:44:00,
2013-07-16 14:49:00,93.4,74.8,30.10,ESE,112,4.6,4.6,55,0.00,OVC,,0.00,WeatherDisplay:10.37,2013-07-16 18:49:00,
2013-07-16 14:54:00,93.0,74.4,30.10,SW,225,4.2,4.2,55,0.00,OVC,,0.00,WeatherDisplay:10.37,2013-07-16 18:54:00,
2013-07-16 14:59:00,93.0,75.0,30.10,WSW,248,6.9,6.9,56,0.00,OVC,,0.00,WeatherDisplay:10.37,2013-07-16 18:59:00,
2013-07-16 15:04:00,92.3,74.3,30.10,East,90,4.7,4.7,56,0.00,BKN,,0.00,WeatherDisplay:10.37,2013-07-16 19:04:00,
2013-07-16 15:09:00,93.0,74.4,30.10,WSW,248,3.5,3.5,55,0.00,BKN,,0.00,WeatherDisplay:10.37,2013-07-16 19:09:00,
2013-07-16 15:14:00,90.7,73.9,30.10,ESE,112,7.3,7.3,58,0.00,BKN,,0.00,WeatherDisplay:10.37,2013-07-16 19:14:00,
2013-07-16 15:19:00,90.0,73.7,30.10,NE,45,7.8,7.8,59,0.00,BKN,,0.00,WeatherDisplay:10.37,2013-07-16 19:19:00,
2013-07-16 15:24:00,90.1,73.8,30.09,East,90,3.5,3.5,59,0.00,BKN,,0.00,WeatherDisplay:10.37,2013-07-16 19:24:00,
2013-07-16 15:29:00,91.0,74.7,30.09,ESE,112,6.9,6.9,59,0.00,BKN,,0.00,WeatherDisplay:10.37,2013-07-16 19:29:00,
2013-07-16 15:34:00,91.0,74.7,30.09,ESE,112,6.9,6.9,59,0.00,BKN,,0.00,WeatherDisplay:10.37,2013-07-16 19:34:00,
2013-07-16 15:39:00,90.5,74.2,30.09,ESE,112,4.6,4.6,59,0.00,BKN,,0.00,WeatherDisplay:10.37,2013-07-16 19:39:00,
2013-07-16 15:44:00,91.9,74.5,30.09,NE,45,4.6,4.6,57,0.00,BKN,,0.00,WeatherDisplay:10.37,2013-07-16 19:44:00,
2013-07-16 15:49:00,93.9,75.3,30.09,SSW,202,5.3,5.3,55,0.00,BKN,,0.00,WeatherDisplay:10.37,2013-07-16 19:49:00,
2013-07-16 15:54:00,93.0,75.5,30.09,WSW,248,5.8,5.8,57,0.00,BKN,,0.00,WeatherDisplay:10.37,2013-07-16 19:54:00,
2013-07-16 15:59:00,89.4,75.6,30.10,SW,225,16.1,16.1,64,0.00,BKN,,0.00,WeatherDisplay:10.37,2013-07-16 19:59:00,
2013-07-16 16:04:00,85.8,74.9,30.10,West,270,16.1,16.1,70,0.00,OVC,,0.00,WeatherDisplay:10.37,2013-07-16 20:04:00,
2013-07-16 16:09:00,85.8,74.9,30.11,West,270,16.1,16.1,70,0.00,OVC,,0.00,WeatherDisplay:10.37,2013-07-16 20:09:00,
2013-07-16 16:14:00,81.5,72.8,30.11,West,270,13.0,13.0,75,0.00,OVC,,0.00,WeatherDisplay:10.37,2013-07-16 20:14:00,
2013-07-16 16:19:00,79.0,71.6,30.11,West,270,24.2,24.2,78,0.00,OVC,,0.00,WeatherDisplay:10.37,2013-07-16 20:19:00,
2013-07-16 16:24:00,72.9,70.8,30.12,WSW,248,32.2,32.9,93,0.00,OVC,,0.01,WeatherDisplay:10.37,2013-07-16 20:24:00,
2013-07-16 16:29:00,72.3,70.8,30.12,West,270,21.9,21.9,95,0.01,RA,,0.01,WeatherDisplay:10.37,2013-07-16 20:29:00,
2013-07-16 16:34:00,71.8,70.0,30.17,SW,225,20.7,20.7,94,0.03,RA,,0.03,WeatherDisplay:10.37,2013-07-16 20:34:00,
2013-07-16 16:39:00,71.2,69.7,30.17,West,270,15.0,15.0,95,0.07,RA,,0.07,WeatherDisplay:10.37,2013-07-16 20:39:00,
2013-07-16 16:44:00,71.4,70.2,30.17,ENE,68,4.6,4.6,96,0.10,RA,,0.12,WeatherDisplay:10.37,2013-07-16 20:44:00,
2013-07-16 16:49:00,71.4,70.5,30.13,North,360,2.3,2.3,97,0.14,RA,,0.14,WeatherDisplay:10.37,2013-07-16 20:49:00,
2013-07-16 16:54:00,72.3,71.4,30.13,SE,135,3.5,3.5,97,0.15,RA,,0.15,WeatherDisplay:10.37,2013-07-16 20:54:00,
2013-07-16 16:59:00,72.3,71.7,30.10,NNW,338,2.2,2.2,98,0.17,RA,,0.17,WeatherDisplay:10.37,2013-07-16 20:59:00,
2013-07-16 17:04:00,72.0,71.4,30.10,SW,225,3.5,3.5,98,0.19,RA,,0.19,WeatherDisplay:10.37,2013-07-16 21:04:00,
2013-07-16 17:09:00,72.3,71.7,30.10,WSW,248,2.3,2.3,98,0.20,RA,,0.20,WeatherDisplay:10.37,2013-07-16 21:09:00,
2013-07-16 17:14:00,72.0,71.4,30.09,SW,225,3.5,3.5,98,0.20,RA,,0.20,WeatherDisplay:10.37,2013-07-16 21:14:00,
2013-07-16 17:19:00,71.8,71.2,30.09,SW,225,4.6,4.6,98,0.20,OVC,,0.20,WeatherDisplay:10.37,2013-07-16 21:19:00,
2013-07-16 17:24:00,71.6,71.0,30.10,WSW,248,5.8,5.8,98,0.20,OVC,,0.20,WeatherDisplay:10.37,2013-07-16 21:24:00,
2013-07-16 17:29:00,71.4,70.8,30.10,West,270,4.6,4.6,98,0.19,OVC,,0.20,WeatherDisplay:10.37,2013-07-16 21:29:00,
2013-07-16 17:34:00,71.2,70.3,30.11,SSW,202,4.6,4.6,97,0.17,-RA,,0.20,WeatherDisplay:10.37,2013-07-16 21:34:00,
2013-07-16 17:39:00,71.2,70.3,30.11,NNW,338,3.5,3.5,97,0.13,-RA,,0.20,WeatherDisplay:10.37,2013-07-16 21:39:00,
2013-07-16 17:44:00,71.6,71.0,30.11,West,270,1.1,0.0,98,0.10,-RA,,0.20,WeatherDisplay:10.37,2013-07-16 21:44:00,
2013-07-16 17:49:00,72.0,71.4,30.10,WSW,248,2.3,2.3,98,0.06,-RA,,0.20,WeatherDisplay:10.37,2013-07-16 21:49:00,
2013-07-16 17:54:00,72.0,71.4,30.10,SW,225,3.2,3.2,98,0.05,-RA,,0.20,WeatherDisplay:10.37,2013-07-16 21:54:00,
2013-07-16 17:59:00,72.0,71.4,30.10,SW,225,2.3,2.3,98,0.03,-RA,,0.20,WeatherDisplay:10.37,2013-07-16 21:59:00,
2013-07-16 18:04:00,71.6,71.0,30.10,WSW,248,4.6,4.6,98,0.01,CLR,,0.20,WeatherDisplay:10.37,2013-07-16 22:04:00,
2013-07-16 18:09:00,71.2,70.3,30.10,WNW,292,4.7,4.8,97,0.00,CLR,,0.20,WeatherDisplay:10.37,2013-07-16 22:09:00,
2013-07-16 18:14:00,71.2,70.0,30.10,WSW,248,4.6,4.6,96,0.00,CLR,,0.20,WeatherDisplay:10.37,2013-07-16 22:14:00,
2013-07-16 18:19:00,71.4,70.2,30.10,SW,225,4.6,4.6,96,0.00,CLR,,0.20,WeatherDisplay:10.37,2013-07-16 22:19:00,
2013-07-16 18:24:00,71.8,70.9,30.10,WSW,248,2.3,2.3,97,0.00,CLR,,0.20,WeatherDisplay:10.37,2013-07-16 22:24:00,
2013-07-16 18:29:00,72.0,71.4,30.10,WSW,248,2.3,2.3,98,0.00,CLR,,0.20,WeatherDisplay:10.37,2013-07-16 22:29:00,
2013-07-16 18:34:00,71.8,70.9,30.10,West,270,3.5,3.5,97,0.00,CLR,,0.20,WeatherDisplay:10.37,2013-07-16 22:34:00,
2013-07-16 18:39:00,72.3,71.7,30.10,SSW,202,0.0,0.0,98,0.00,CLR,,0.20,WeatherDisplay:10.37,2013-07-16 22:39:00,
2013-07-16 18:44:00,72.5,71.9,30.10,SSW,202,4.2,4.2,98,0.00,CLR,,0.20,WeatherDisplay:10.37,2013-07-16 22:44:00,
2013-07-16 18:49:00,72.5,71.9,30.11,West,270,2.7,2.7,98,0.00,CLR,,0.20,WeatherDisplay:10.37,2013-07-16 22:49:00,
2013-07-16 18:54:00,72.5,71.9,30.11,WSW,248,4.7,4.7,98,0.00,CLR,,0.20,WeatherDisplay:10.37,2013-07-16 22:54:00,
2013-07-16 18:59:00,72.3,71.4,30.11,SW,225,4.6,4.6,97,0.00,CLR,,0.20,WeatherDisplay:10.37,2013-07-16 22:59:00,
2013-07-16 19:04:00,72.5,71.6,30.11,SW,225,2.3,2.3,97,0.00,CLR,,0.20,WeatherDisplay:10.37,2013-07-16 23:04:00,
2013-07-16 19:09:00,72.9,72.0,30.11,SW,225,2.3,2.5,97,0.00,CLR,,0.20,WeatherDisplay:10.37,2013-07-16 23:09:00,
2013-07-16 19:14:00,72.7,71.8,30.11,West,270,3.7,3.7,97,0.00,CLR,,0.20,WeatherDisplay:10.37,2013-07-16 23:14:00,
2013-07-16 19:19:00,72.5,71.0,30.11,West,270,5.8,5.8,95,0.00,CLR,,0.20,WeatherDisplay:10.37,2013-07-16 23:19:00,
2013-07-16 19:24:00,72.3,70.8,30.11,SW,225,4.6,4.6,95,0.00,CLR,,0.20,WeatherDisplay:10.37,2013-07-16 23:24:00,
2013-07-16 19:29:00,72.7,71.8,30.11,WSW,248,2.3,2.3,97,0.00,CLR,,0.20,WeatherDisplay:10.37,2013-07-16 23:29:00,
2013-07-16 19:34:00,72.7,71.8,30.11,ENE,68,3.5,3.5,97,0.00,CLR,,0.20,WeatherDisplay:10.37,2013-07-16 23:34:00,
2013-07-16 19:39:00,72.7,71.8,30.11,South,180,0.0,0.0,97,0.00,CLR,,0.20,WeatherDisplay:10.37,2013-07-16 23:39:00,
2013-07-16 19:44:00,72.7,71.8,30.11,SW,225,2.3,2.3,97,0.00,CLR,,0.20,WeatherDisplay:10.37,2013-07-16 23:44:00,
2013-07-16 19:50:00,72.7,71.8,30.11,SW,223,0.0,3.0,97,0.00,CLR,,0.20,WeatherDisplay:10.37,2013-07-16 23:50:00,
2013-07-16 19:55:00,72.6,71.7,30.11,SW,225,1.0,3.0,97,0.00,CLR,,0.20,WeatherDisplay:10.37,2013-07-16 23:55:00,
2013-07-16 20:00:00,72.5,71.9,30.10,SW,215,2.0,3.0,98,0.00,CLR,,0.20,WeatherDisplay:10.37,2013-07-17 00:00:00,
2013-07-16 20:05:00,72.4,71.8,30.10,SW,219,2.0,3.0,98,0.00,CLR,,0.20,WeatherDisplay:10.37,2013-07-17 00:05:00,
2013-07-16 20:10:00,72.3,71.7,30.11,ESE,112,2.2,2.2,98,0.00,CLR,,0.20,WeatherDisplay:10.37,2013-07-17 00:10:00,
2013-07-16 20:15:00,72.3,71.7,30.11,SW,225,2.3,2.3,98,0.00,CLR,,0.20,WeatherDisplay:10.37,2013-07-17 00:15:00,
2013-07-16 20:20:00,72.1,71.5,30.11,West,270,2.3,2.3,98,0.00,CLR,,0.20,WeatherDisplay:10.37,2013-07-17 00:20:00,
2013-07-16 20:25:00,72.0,71.1,30.10,NW,315,1.1,1.1,97,0.00,CLR,,0.20,WeatherDisplay:10.37,2013-07-17 00:25:00,
2013-07-16 20:30:00,72.0,71.1,30.10,SSE,158,0.0,0.0,97,0.00,CLR,,0.20,WeatherDisplay:10.37,2013-07-17 00:30:00,
2013-07-16 20:35:00,72.0,71.4,30.11,ESE,112,0.0,0.0,98,0.00,CLR,,0.20,WeatherDisplay:10.37,2013-07-17 00:35:00,
2013-07-16 20:40:00,71.8,71.2,30.11,ESE,112,2.3,2.3,98,0.00,CLR,,0.20,WeatherDisplay:10.37,2013-07-17 00:40:00,
2013-07-16 20:45:00,71.8,71.2,30.11,SE,135,1.1,0.0,98,0.00,CLR,,0.20,WeatherDisplay:10.37,2013-07-17 00:45:00,
2013-07-16 20:50:00,71.8,71.2,30.11,SW,225,0.0,0.0,98,0.00,CLR,,0.20,WeatherDisplay:10.37,2013-07-17 00:50:00,
2013-07-16 20:55:00,71.6,71.0,30.11,West,270,0.0,0.0,98,0.00,CLR,,0.20,WeatherDisplay:10.37,2013-07-17 00:55:00,
2013-07-16 21:00:00,71.6,71.0,30.11,SSE,158,0.0,0.0,98,0.00,CLR,,0.20,WeatherDisplay:10.37,2013-07-17 01:00:00,
2013-07-16 21:05:00,71.6,71.0,30.11,SSW,202,2.3,2.3,98,0.00,CLR,,0.20,WeatherDisplay:10.37,2013-07-17 01:05:00,
2013-07-16 21:10:00,71.6,71.0,30.11,West,270,0.0,0.0,98,0.00,CLR,,0.20,WeatherDisplay:10.37,2013-07-17 01:10:00,
2013-07-16 21:15:00,71.4,70.8,30.11,West,270,2.3,2.3,98,0.00,CLR,,0.20,WeatherDisplay:10.37,2013-07-17 01:15:00,
2013-07-16 21:20:00,71.4,70.8,30.11,WSW,248,3.5,3.5,98,0.00,CLR,,0.20,WeatherDisplay:10.37,2013-07-17 01:20:00,
2013-07-16 21:25:00,71.4,70.8,30.12,SW,225,0.0,0.0,98,0.00,CLR,,0.20,WeatherDisplay:10.37,2013-07-17 01:25:00,
2013-07-16 21:30:00,71.4,70.8,30.12,SW,225,0.0,0.0,98,0.00,CLR,,0.20,WeatherDisplay:10.37,2013-07-17 01:30:00,
2013-07-16 21:35:00,71.2,70.6,30.12,SSW,202,2.7,2.7,98,0.00,CLR,,0.20,WeatherDisplay:10.37,2013-07-17 01:35:00,
2013-07-16 21:40:00,71.2,70.6,30.12,SW,225,2.2,2.2,98,0.00,CLR,,0.20,WeatherDisplay:10.37,2013-07-17 01:40:00,
2013-07-16 21:45:00,71.2,70.6,30.12,SW,225,3.5,3.5,98,0.00,CLR,,0.20,WeatherDisplay:10.37,2013-07-17 01:45:00,
2013-07-16 21:50:00,71.1,70.5,30.12,ESE,112,2.3,2.3,98,0.00,CLR,,0.20,WeatherDisplay:10.37,2013-07-17 01:50:00,
2013-07-16 21:55:00,71.1,70.5,30.12,SSW,202,0.0,0.0,98,0.00,CLR,,0.20,WeatherDisplay:10.37,2013-07-17 01:55:00,
2013-07-16 22:00:00,71.1,70.5,30.12,West,270,0.0,0.0,98,0.00,CLR,,0.20,WeatherDisplay:10.37,2013-07-17 02:00:00,
2013-07-16 22:05:00,71.1,70.5,30.12,East,90,1.1,1.1,98,0.00,CLR,,0.20,WeatherDisplay:10.37,2013-07-17 02:05:00,
2013-07-16 22:10:00,71.1,70.5,30.13,ESE,112,3.5,3.5,98,0.00,CLR,,0.20,WeatherDisplay:10.37,2013-07-17 02:10:00,
2013-07-16 22:15:00,71.1,70.5,30.13,SW,225,0.0,0.0,98,0.00,CLR,,0.20,WeatherDisplay:10.37,2013-07-17 02:15:00,
2013-07-16 22:20:00,71.1,70.5,30.13,SW,225,0.0,0.0,98,0.00,CLR,,0.20,WeatherDisplay:10.37,2013-07-17 02:20:00,
2013-07-16 22:25:00,70.9,70.3,30.14,SW,225,2.3,2.3,98,0.00,CLR,,0.20,WeatherDisplay:10.37,2013-07-17 02:25:00,
2013-07-16 22:30:00,70.9,70.3,30.14,SW,225,3.5,3.5,98,0.00,CLR,,0.20,WeatherDisplay:10.37,2013-07-17 02:30:00,
2013-07-16 22:35:00,70.9,70.3,30.12,West,270,2.3,2.4,98,0.00,CLR,,0.20,WeatherDisplay:10.37,2013-07-17 02:35:00,
2013-07-16 22:40:00,70.9,70.3,30.12,WSW,248,2.7,2.7,98,0.00,CLR,,0.20,WeatherDisplay:10.37,2013-07-17 02:40:00,
2013-07-16 22:45:00,70.9,70.3,30.12,West,270,3.7,3.7,98,0.00,CLR,,0.20,WeatherDisplay:10.37,2013-07-17 02:45:00,
2013-07-16 22:50:00,70.9,70.3,30.12,SW,225,3.5,3.5,98,0.00,CLR,,0.20,WeatherDisplay:10.37,2013-07-17 02:50:00,
2013-07-16 22:55:00,70.9,70.3,30.12,WSW,248,3.5,3.5,98,0.00,CLR,,0.20,WeatherDisplay:10.37,2013-07-17 02:55:00,
2013-07-16 23:00:00,70.9,70.3,30.13,West,270,2.3,2.6,98,0.00,CLR,,0.20,WeatherDisplay:10.37,2013-07-17 03:00:00,
2013-07-16 23:05:00,70.9,70.3,30.13,WSW,248,2.3,2.3,98,0.00,SCT,,0.20,WeatherDisplay:10.37,2013-07-17 03:05:00,
2013-07-16 23:10:00,70.9,70.3,30.13,WSW,248,1.1,1.1,98,0.00,SCT,,0.20,WeatherDisplay:10.37,2013-07-17 03:10:00,
2013-07-16 23:15:00,70.9,70.3,30.13,ESE,112,0.0,0.0,98,0.00,SCT,,0.20,WeatherDisplay:10.37,2013-07-17 03:15:00,
2013-07-16 23:20:00,70.9,70.6,30.13,ESE,112,3.2,3.2,99,0.00,SCT,,0.20,WeatherDisplay:10.37,2013-07-17 03:20:00,
2013-07-16 23:25:00,70.7,70.4,30.13,NE,45,1.1,1.1,99,0.00,SCT,,0.20,WeatherDisplay:10.37,2013-07-17 03:25:00,
2013-07-16 23:30:00,70.7,70.4,30.13,SE,135,1.1,1.1,99,0.00,SCT,,0.20,WeatherDisplay:10.37,2013-07-17 03:30:00,
2013-07-16 23:35:00,70.7,70.4,30.13,ESE,112,3.5,3.5,99,0.00,FEW,,0.20,WeatherDisplay:10.37,2013-07-17 03:35:00,
2013-07-16 23:40:00,70.7,70.4,30.13,SSE,158,2.2,2.2,99,0.00,FEW,,0.20,WeatherDisplay:10.37,2013-07-17 03:40:00,
2013-07-16 23:45:00,70.7,70.4,30.13,ESE,112,2.3,2.3,99,0.00,FEW,,0.20,WeatherDisplay:10.37,2013-07-17 03:45:00,
2013-07-16 23:50:00,70.7,70.4,30.13,SSW,202,0.0,0.0,99,0.00,FEW,,0.20,WeatherDisplay:10.37,2013-07-17 03:50:00,
2013-07-16 23:55:00,70.7,70.4,30.13,South,180,2.3,2.3,99,0.00,FEW,,0.20,WeatherDisplay:10.37,2013-07-17 03:55:00,